createdAt,value
2019-04-07T00:01:57.306Z,20.70
2019-04-07T00:04:28.057Z,20.70
2019-04-07T00:06:58.041Z,20.70
2019-04-07T00:09:27.903Z,20.60
2019-04-07T00:11:57.823Z,20.60
2019-04-07T00:14:28.148Z,20.60
2019-04-07T00:16:58.203Z,20.50
2019-04-07T00:19:28.360Z,20.50
2019-04-07T00:21:58.444Z,20.50
2019-04-07T00:24:28.367Z,20.50
2019-04-07T00:26:58.242Z,20.50
2019-04-07T00:29:28.815Z,20.50
2019-04-07T00:31:58.926Z,20.50
2019-04-07T00:34:28.931Z,20.50
2019-04-07T00:37:00.077Z,20.40
2019-04-07T00:39:29.988Z,20.40
2019-04-07T00:41:59.921Z,20.40
2019-04-07T00:44:30.035Z,20.40
2019-04-07T00:46:59.991Z,20.40
2019-04-07T00:49:29.834Z,20.30
2019-04-07T00:52:01.312Z,20.30
2019-04-07T00:54:31.526Z,20.30
2019-04-07T00:57:01.949Z,20.30
2019-04-07T00:59:32.047Z,20.30
2019-04-07T01:02:02.573Z,20.30
2019-04-07T01:04:32.629Z,20.30
2019-04-07T01:07:02.708Z,20.30
2019-04-07T01:09:34.123Z,20.30
2019-04-07T01:12:04.953Z,20.20
2019-04-07T01:14:34.916Z,20.20
2019-04-07T01:17:05.105Z,20.20
2019-04-07T01:19:35.345Z,20.20
2019-04-07T01:22:05.460Z,20.20
2019-04-07T01:24:35.335Z,20.10
2019-04-07T01:27:05.477Z,20.10
2019-04-07T01:29:35.455Z,20.10
2019-04-07T01:32:06.030Z,20.20
2019-04-07T01:34:36.184Z,20.10
2019-04-07T01:37:06.075Z,20.10
2019-04-07T01:39:36.149Z,20.10
2019-04-07T01:42:10.735Z,20.10
2019-04-07T01:44:42.244Z,20.10
2019-04-07T01:47:20.074Z,20.10
2019-04-07T01:49:57.809Z,20.10
2019-04-07T01:52:29.547Z,20.00
2019-04-07T01:55:16.360Z,20.00
2019-04-07T01:58:06.212Z,20.00
2019-04-07T02:00:40.489Z,20.00
2019-04-07T02:03:12.148Z,20.00
2019-04-07T02:05:59.185Z,20.00
2019-04-07T02:08:35.283Z,20.00
2019-04-07T02:11:07.210Z,20.00
2019-04-07T02:13:39.279Z,20.00
2019-04-07T02:16:14.486Z,19.90
2019-04-07T02:18:53.337Z,19.90
2019-04-07T02:21:25.049Z,20.00
2019-04-07T02:23:56.931Z,20.00
2019-04-07T02:26:45.580Z,19.90
2019-04-07T02:29:26.074Z,19.90
2019-04-07T02:32:00.373Z,19.90
2019-04-07T02:34:50.951Z,19.90
2019-04-07T02:37:22.731Z,19.90
2019-04-07T02:39:54.925Z,19.80
2019-04-07T02:42:41.461Z,19.90
2019-04-07T02:45:13.349Z,19.80
2019-04-07T02:47:44.579Z,19.90
2019-04-07T02:50:24.122Z,19.80
2019-04-07T02:53:05.715Z,19.80
2019-04-07T02:55:37.480Z,19.80
2019-04-07T02:58:12.270Z,19.80
2019-04-07T03:00:50.773Z,19.80
2019-04-07T03:03:22.854Z,19.80
2019-04-07T03:05:59.877Z,19.80
2019-04-07T03:08:32.230Z,19.80
2019-04-07T03:11:04.014Z,19.80
2019-04-07T03:13:54.316Z,19.70
2019-04-07T03:16:29.351Z,19.70
2019-04-07T03:19:09.904Z,19.70
2019-04-07T03:22:00.704Z,19.70
2019-04-07T03:24:34.995Z,19.70
2019-04-07T03:27:06.680Z,19.70
2019-04-07T03:29:56.853Z,19.70
2019-04-07T03:32:43.309Z,19.70
2019-04-07T03:35:19.823Z,19.60
2019-04-07T03:37:53.212Z,19.70
2019-04-07T03:40:30.948Z,19.70
2019-04-07T03:43:05.159Z,19.60
2019-04-07T03:45:36.738Z,19.60
2019-04-07T03:48:14.005Z,19.60
2019-04-07T03:50:46.194Z,19.60
2019-04-07T03:53:20.322Z,19.60
2019-04-07T03:55:51.830Z,19.60
2019-04-07T03:58:39.818Z,19.60
2019-04-07T04:01:28.354Z,19.60
2019-04-07T04:04:09.627Z,19.50
2019-04-07T04:06:59.959Z,19.50
2019-04-07T04:09:41.262Z,19.60
2019-04-07T04:12:19.716Z,19.50
2019-04-07T04:15:08.839Z,19.60
2019-04-07T04:17:39.130Z,19.50
2019-04-07T04:20:10.402Z,19.50
2019-04-07T04:22:40.492Z,19.50
2019-04-07T04:25:12.521Z,19.50
2019-04-07T04:27:43.095Z,19.50
2019-04-07T04:30:13.472Z,19.50
2019-04-07T04:32:44.356Z,19.50
2019-04-07T04:35:14.884Z,19.50
2019-04-07T04:37:50.208Z,19.50
2019-04-07T04:40:16.685Z,19.40
2019-04-07T04:42:46.559Z,19.50
2019-04-07T04:45:16.621Z,19.40
2019-04-07T04:47:46.558Z,19.40
2019-04-07T04:50:16.855Z,19.50
2019-04-07T04:52:47.002Z,19.40
2019-04-07T04:55:17.015Z,19.40
2019-04-07T04:57:47.926Z,19.40
2019-04-07T05:00:20.284Z,19.40
2019-04-07T05:02:50.305Z,19.40
2019-04-07T05:05:21.137Z,19.40
2019-04-07T05:07:59.150Z,19.40
2019-04-07T05:10:22.655Z,19.40
2019-04-07T05:12:52.604Z,19.40
2019-04-07T05:15:23.057Z,19.40
2019-04-07T05:17:53.855Z,19.40
2019-04-07T05:20:24.023Z,19.40
2019-04-07T05:22:53.996Z,19.40
2019-04-07T05:25:23.836Z,19.30
2019-04-07T05:27:53.703Z,19.30
2019-04-07T05:30:24.635Z,19.30
2019-04-07T05:32:54.559Z,19.30
2019-04-07T05:35:24.929Z,19.30
2019-04-07T05:38:02.773Z,19.30
2019-04-07T05:40:26.707Z,19.30
2019-04-07T05:42:56.731Z,19.30
2019-04-07T05:45:27.967Z,19.30
2019-04-07T05:47:59.027Z,19.30
2019-04-07T05:50:29.523Z,19.30
2019-04-07T05:52:59.511Z,19.30
2019-04-07T05:55:29.383Z,19.30
2019-04-07T05:57:59.594Z,19.30
2019-04-07T06:00:29.646Z,19.30
2019-04-07T06:03:04.511Z,19.30
2019-04-07T06:05:32.163Z,19.30
2019-04-07T06:08:18.816Z,19.30
2019-04-07T06:10:33.746Z,19.30
2019-04-07T06:13:04.115Z,19.30
2019-04-07T06:15:34.778Z,19.30
2019-04-07T06:18:05.145Z,19.30
2019-04-07T06:20:35.100Z,19.30
2019-04-07T06:23:05.013Z,19.30
2019-04-07T06:25:40.829Z,19.30
2019-04-07T06:28:07.110Z,19.30
2019-04-07T06:30:37.904Z,19.30
2019-04-07T06:33:07.872Z,19.20
2019-04-07T06:35:37.989Z,19.20
2019-04-07T06:38:08.908Z,19.20
2019-04-07T06:40:39.292Z,19.20
2019-04-07T06:43:09.382Z,19.20
2019-04-07T06:45:41.945Z,19.20
2019-04-07T06:48:12.384Z,19.20
2019-04-07T06:50:49.875Z,19.20
2019-04-07T06:53:21.087Z,19.20
2019-04-07T06:56:05.749Z,19.20
2019-04-07T06:58:40.861Z,19.20
2019-04-07T07:01:27.444Z,19.20
2019-04-07T07:03:59.021Z,19.20
2019-04-07T07:06:34.023Z,19.20
2019-04-07T07:09:08.624Z,19.20
2019-04-07T07:11:42.784Z,19.20
2019-04-07T07:14:30.618Z,19.30
2019-04-07T07:16:49.886Z,19.30
2019-04-07T07:19:36.810Z,19.30
2019-04-07T07:22:15.873Z,19.30
2019-04-07T07:24:46.820Z,19.30
2019-04-07T07:27:16.456Z,19.30
2019-04-07T07:29:47.570Z,19.30
2019-04-07T07:32:18.073Z,19.30
2019-04-07T07:34:48.108Z,19.20
2019-04-07T07:37:18.372Z,19.30
2019-04-07T07:39:48.716Z,19.30
2019-04-07T07:42:22.172Z,19.30
2019-04-07T07:44:51.362Z,19.30
2019-04-07T07:47:22.584Z,19.30
2019-04-07T07:49:52.831Z,19.30
2019-04-07T07:52:23.288Z,19.30
2019-04-07T07:54:53.652Z,19.30
2019-04-07T07:57:24.657Z,19.30
2019-04-07T07:59:55.283Z,19.20
2019-04-07T08:02:25.249Z,19.20
2019-04-07T08:04:58.379Z,19.20
2019-04-07T08:07:26.874Z,19.20
2019-04-07T08:09:57.995Z,19.20
2019-04-07T08:12:28.145Z,19.30
2019-04-07T08:14:58.624Z,19.20
2019-04-07T08:17:31.622Z,19.20
2019-04-07T08:20:00.863Z,19.20
2019-04-07T08:22:38.881Z,19.20
2019-04-07T08:25:02.565Z,19.20
2019-04-07T08:27:33.161Z,19.20
2019-04-07T08:30:06.981Z,19.20
2019-04-07T08:32:36.083Z,19.30
2019-04-07T08:35:07.923Z,19.20
2019-04-07T08:37:38.369Z,19.20
2019-04-07T08:40:09.120Z,19.20
2019-04-07T08:42:39.206Z,19.20
2019-04-07T08:45:09.490Z,19.20
2019-04-07T08:47:40.183Z,19.20
2019-04-07T08:50:10.526Z,19.30
2019-04-07T08:52:42.796Z,19.20
2019-04-07T08:55:13.971Z,19.30
2019-04-07T08:57:44.573Z,19.20
2019-04-07T09:00:17.341Z,19.20
2019-04-07T09:03:00.897Z,19.20
2019-04-07T09:05:24.220Z,19.30
2019-04-07T09:07:51.867Z,19.20
2019-04-07T09:10:29.268Z,19.30
2019-04-07T09:13:19.940Z,19.30
2019-04-07T09:15:54.495Z,19.30
2019-04-07T09:18:28.934Z,19.30
2019-04-07T09:21:06.583Z,19.30
2019-04-07T09:23:41.172Z,19.30
2019-04-07T09:26:28.855Z,19.20
2019-04-07T09:29:04.006Z,19.30
2019-04-07T09:31:36.388Z,19.20
2019-04-07T09:34:24.792Z,19.20
2019-04-07T09:37:12.621Z,19.20
2019-04-07T09:39:58.488Z,19.20
2019-04-07T09:42:26.746Z,19.30
2019-04-07T09:45:01.994Z,19.20
2019-04-07T09:47:47.770Z,19.20
2019-04-07T09:50:21.836Z,19.30
2019-04-07T09:53:09.996Z,19.30
2019-04-07T09:55:59.204Z,19.20
2019-04-07T09:58:44.375Z,19.20
2019-04-07T10:01:34.341Z,19.20
2019-04-07T10:04:12.297Z,19.20
2019-04-07T10:06:59.076Z,19.20
2019-04-07T10:09:46.652Z,19.20
2019-04-07T10:12:18.508Z,19.20
2019-04-07T10:15:05.468Z,19.20
2019-04-07T10:17:40.038Z,19.20
2019-04-07T10:20:27.472Z,19.20
2019-04-07T10:22:59.148Z,19.20
2019-04-07T10:25:40.792Z,19.20
2019-04-07T10:28:18.805Z,19.20
2019-04-07T10:30:51.790Z,19.20
2019-04-07T10:33:22.627Z,19.20
2019-04-07T10:35:54.024Z,19.20
2019-04-07T10:38:41.490Z,19.20
2019-04-07T10:41:30.471Z,19.20
2019-04-07T10:44:19.425Z,19.20
2019-04-07T10:46:57.000Z,19.20
2019-04-07T10:49:28.552Z,19.20
2019-04-07T10:52:02.928Z,19.20
2019-04-07T10:54:34.599Z,19.20
2019-04-07T10:57:22.194Z,19.20
2019-04-07T10:59:56.861Z,19.20
2019-04-07T11:02:29.371Z,19.20
2019-04-07T11:05:01.864Z,19.20
2019-04-07T11:07:43.836Z,19.20
2019-04-07T11:10:15.876Z,19.20
2019-04-07T11:12:48.006Z,19.20
2019-04-07T11:15:22.652Z,19.20
2019-04-07T11:18:10.629Z,19.20
2019-04-07T11:20:52.559Z,19.20
2019-04-07T11:23:24.176Z,19.20
2019-04-07T11:25:56.074Z,19.20
2019-04-07T11:28:36.520Z,19.30
2019-04-07T11:31:17.828Z,19.20
2019-04-07T11:33:55.505Z,19.20
2019-04-07T11:36:29.913Z,19.20
2019-04-07T11:39:19.967Z,19.20
2019-04-07T11:41:51.559Z,19.20
2019-04-07T11:44:41.295Z,19.20
2019-04-07T11:47:19.634Z,19.20
2019-04-07T11:49:54.048Z,19.20
2019-04-07T11:52:29.086Z,19.20
2019-04-07T11:55:00.930Z,19.20
2019-04-07T11:57:41.177Z,19.20
2019-04-07T12:00:12.434Z,19.20
2019-04-07T12:02:47.001Z,19.20
2019-04-07T12:05:27.340Z,19.20
2019-04-07T12:08:11.555Z,19.20
2019-04-07T12:10:58.688Z,19.20
2019-04-07T12:13:22.934Z,19.30
2019-04-07T12:16:02.000Z,19.30
2019-04-07T12:18:34.162Z,19.30
2019-04-07T12:21:08.889Z,19.30
2019-04-07T12:23:56.598Z,19.30
2019-04-07T12:26:28.106Z,19.30
2019-04-07T12:29:12.349Z,19.30
2019-04-07T12:31:46.931Z,19.30
2019-04-07T12:34:18.972Z,19.30
2019-04-07T12:36:50.647Z,19.30
2019-04-07T12:39:25.650Z,19.30
2019-04-07T12:42:05.211Z,19.30
2019-04-07T12:44:52.878Z,19.40
2019-04-07T12:47:44.066Z,19.40
2019-04-07T12:50:18.896Z,19.40
2019-04-07T12:53:07.993Z,19.40
2019-04-07T12:55:40.504Z,19.50
2019-04-07T12:58:19.177Z,19.40
2019-04-07T13:00:59.456Z,19.40
2019-04-07T13:03:42.812Z,19.50
2019-04-07T13:06:14.590Z,19.50
2019-04-07T13:08:45.561Z,19.50
2019-04-07T13:11:33.997Z,19.60
2019-04-07T13:14:08.140Z,19.60
2019-04-07T13:16:56.358Z,19.60
2019-04-07T13:19:46.104Z,19.60
2019-04-07T13:22:29.942Z,19.60
2019-04-07T13:25:22.588Z,19.60
2019-04-07T13:27:55.490Z,19.60
2019-04-07T13:30:44.451Z,19.60
2019-04-07T13:33:32.987Z,19.60
2019-04-07T13:36:20.328Z,19.60
2019-04-07T13:38:57.861Z,19.60
2019-04-07T13:41:40.827Z,19.60
2019-04-07T13:44:16.151Z,19.60
2019-04-07T13:47:06.268Z,19.60
2019-04-07T13:49:55.386Z,19.60
2019-04-07T13:52:32.287Z,19.60
2019-04-07T13:55:13.031Z,19.60
2019-04-07T13:57:57.742Z,19.60
2019-04-07T14:00:46.319Z,19.60
2019-04-07T14:03:31.473Z,19.60
2019-04-07T14:06:15.290Z,19.60
2019-04-07T14:08:57.181Z,19.60
2019-04-07T14:11:29.657Z,19.60
2019-04-07T14:14:04.599Z,19.70
2019-04-07T14:16:36.618Z,19.70
2019-04-07T14:19:24.210Z,19.70
2019-04-07T14:21:55.741Z,19.70
2019-04-07T14:24:27.427Z,19.70
2019-04-07T14:27:02.196Z,19.70
2019-04-07T14:29:40.404Z,19.60
2019-04-07T14:32:16.124Z,19.60
2019-04-07T14:35:06.312Z,19.60
2019-04-07T14:37:40.805Z,19.60
2019-04-07T14:40:18.918Z,19.60
2019-04-07T14:42:50.657Z,19.60
2019-04-07T14:45:23.168Z,19.70
2019-04-07T14:47:55.006Z,19.60
2019-04-07T14:50:29.501Z,19.60
2019-04-07T14:53:13.231Z,19.60
2019-04-07T14:55:53.945Z,19.50
2019-04-07T14:58:34.189Z,19.50
2019-04-07T15:01:08.241Z,19.50
2019-04-07T15:03:37.803Z,19.60
2019-04-07T15:06:08.656Z,19.50
2019-04-07T15:08:43.232Z,19.50
2019-04-07T15:11:24.872Z,19.60
2019-04-07T15:13:58.731Z,19.60
2019-04-07T15:16:28.405Z,19.60
2019-04-07T15:18:58.735Z,19.60
2019-04-07T15:21:28.649Z,19.70
2019-04-07T15:24:01.831Z,19.70
2019-04-07T15:26:30.131Z,19.70
2019-04-07T15:29:04.658Z,19.70
2019-04-07T15:31:32.008Z,19.80
2019-04-07T15:34:06.559Z,19.80
2019-04-07T15:36:34.535Z,19.80
2019-04-07T15:39:07.787Z,19.80
2019-04-07T15:41:38.262Z,19.80
2019-04-07T15:44:10.374Z,19.80
2019-04-07T15:46:39.819Z,19.80
2019-04-07T15:49:10.539Z,19.80
2019-04-07T15:51:41.637Z,19.80
2019-04-07T15:54:11.604Z,19.80
2019-04-07T15:56:42.344Z,19.70
2019-04-07T15:59:12.363Z,19.70
2019-04-07T16:01:43.036Z,19.70
2019-04-07T16:04:13.745Z,19.80
2019-04-07T16:06:47.034Z,19.80
2019-04-07T16:09:29.641Z,19.70
2019-04-07T16:11:49.574Z,19.70
2019-04-07T16:14:20.842Z,19.70
2019-04-07T16:16:51.708Z,19.70
2019-04-07T16:19:34.871Z,19.70
2019-04-07T16:21:54.846Z,19.70
2019-04-07T16:24:25.692Z,19.60
2019-04-07T16:26:55.786Z,19.60
2019-04-07T16:29:25.710Z,19.60
2019-04-07T16:31:57.000Z,19.60
2019-04-07T16:34:27.280Z,19.60
2019-04-07T16:36:59.380Z,19.60
2019-04-07T16:39:29.166Z,19.60
2019-04-07T16:42:00.352Z,19.60
2019-04-07T16:44:30.818Z,19.60
2019-04-07T16:47:04.050Z,19.60
2019-04-07T16:49:32.625Z,19.60
2019-04-07T16:52:03.499Z,19.50
2019-04-07T16:54:34.110Z,19.50
2019-04-07T16:57:04.125Z,19.50
2019-04-07T16:59:34.884Z,19.50
2019-04-07T17:02:06.209Z,19.50
2019-04-07T17:04:36.516Z,19.50
2019-04-07T17:07:11.379Z,19.50
2019-04-07T17:09:38.469Z,19.50
2019-04-07T17:12:11.132Z,19.50
2019-04-07T17:14:40.611Z,19.50
2019-04-07T17:17:11.160Z,19.50
2019-04-07T17:19:41.585Z,19.50
2019-04-07T17:22:13.238Z,19.40
2019-04-07T17:24:44.172Z,19.50
2019-04-07T17:27:14.836Z,19.40
2019-04-07T17:29:46.755Z,19.50
2019-04-07T17:32:17.082Z,19.40
2019-04-07T17:34:47.004Z,19.40
2019-04-07T17:37:17.427Z,19.40
2019-04-07T17:39:49.505Z,19.40
2019-04-07T17:42:20.174Z,19.40
2019-04-07T17:45:01.997Z,19.50
2019-04-07T17:47:39.592Z,19.40
2019-04-07T17:50:30.403Z,19.40
2019-04-07T17:53:01.350Z,19.40
2019-04-07T17:55:33.151Z,19.40
2019-04-07T17:58:07.901Z,19.40
2019-04-07T18:00:42.002Z,19.40
2019-04-07T18:03:30.299Z,19.40
2019-04-07T18:06:20.045Z,19.40
2019-04-07T18:09:02.741Z,19.40
2019-04-07T18:11:29.408Z,19.40
2019-04-07T18:14:19.184Z,19.40
2019-04-07T18:16:51.655Z,19.40
2019-04-07T18:19:39.668Z,19.40
2019-04-07T18:22:20.464Z,19.40
2019-04-07T18:24:50.948Z,19.40
2019-04-07T18:27:25.350Z,19.40
2019-04-07T18:30:10.341Z,19.40
2019-04-07T18:32:44.100Z,19.40
2019-04-07T18:35:18.152Z,19.40
2019-04-07T18:37:49.737Z,19.40
2019-04-07T18:40:37.887Z,19.40
2019-04-07T18:43:18.882Z,19.40
2019-04-07T18:45:52.663Z,19.40
2019-04-07T18:48:28.784Z,19.40
2019-04-07T18:51:10.619Z,19.40
2019-04-07T18:54:01.755Z,19.40
2019-04-07T18:56:41.740Z,19.40
2019-04-07T18:59:18.110Z,19.30
2019-04-07T19:01:49.420Z,19.40
2019-04-07T19:04:32.472Z,19.40
2019-04-07T19:07:04.275Z,19.40
2019-04-07T19:09:39.215Z,19.30
2019-04-07T19:12:22.724Z,19.30
2019-04-07T19:15:04.043Z,19.30
2019-04-07T19:17:48.169Z,19.30
2019-04-07T19:20:27.339Z,19.30
2019-04-07T19:23:00.211Z,19.30
2019-04-07T19:25:45.702Z,19.30
2019-04-07T19:28:37.177Z,19.40
2019-04-07T19:31:23.980Z,19.30
2019-04-07T19:34:13.338Z,19.40
2019-04-07T19:36:48.207Z,19.40
2019-04-07T19:39:24.728Z,19.40
2019-04-07T19:42:04.540Z,19.30
2019-04-07T19:44:41.493Z,19.30
2019-04-07T19:47:12.106Z,19.30
2019-04-07T19:49:50.430Z,19.30
2019-04-07T19:52:26.122Z,19.30
2019-04-07T19:55:04.117Z,19.40
2019-04-07T19:57:44.936Z,19.30
2019-04-07T20:00:22.216Z,19.30
2019-04-07T20:02:59.530Z,19.30
2019-04-07T20:05:35.152Z,19.30
2019-04-07T20:08:24.881Z,19.30
2019-04-07T20:11:09.793Z,19.30
2019-04-07T20:13:50.906Z,19.30
2019-04-07T20:16:26.248Z,19.30
2019-04-07T20:19:17.151Z,19.30
2019-04-07T20:22:06.945Z,19.30
2019-04-07T20:24:55.022Z,19.30
2019-04-07T20:27:28.477Z,19.20
2019-04-07T20:30:17.497Z,19.20
2019-04-07T20:32:56.786Z,19.30
2019-04-07T20:35:44.811Z,19.30
2019-04-07T20:38:28.965Z,19.40
2019-04-07T20:41:04.147Z,19.40
2019-04-07T20:43:42.580Z,19.40
2019-04-07T20:46:27.600Z,19.40
2019-04-07T20:49:15.902Z,19.40
2019-04-07T20:52:04.061Z,19.40
2019-04-07T20:54:38.889Z,19.40
2019-04-07T20:57:16.378Z,19.40
2019-04-07T20:59:53.088Z,19.50
2019-04-07T21:02:38.429Z,19.50
2019-04-07T21:05:15.773Z,19.50
2019-04-07T21:07:49.122Z,19.50
2019-04-07T21:10:27.491Z,19.50
2019-04-07T21:12:59.156Z,19.50
2019-04-07T21:15:47.781Z,19.50
2019-04-07T21:18:21.818Z,19.50
2019-04-07T21:21:11.798Z,19.50
2019-04-07T21:23:59.450Z,19.50
2019-04-07T21:26:32.240Z,19.50
2019-04-07T21:29:08.187Z,19.50
2019-04-07T21:31:37.700Z,19.50
2019-04-07T21:34:18.151Z,19.50
2019-04-07T21:36:52.604Z,19.50
2019-04-07T21:39:31.751Z,19.50
2019-04-07T21:42:16.242Z,19.50
2019-04-07T21:45:05.837Z,19.50
2019-04-07T21:47:46.108Z,19.50
2019-04-07T21:50:20.866Z,19.50
2019-04-07T21:52:55.704Z,19.50
2019-04-07T21:55:36.053Z,19.50
2019-04-07T21:58:08.358Z,19.50
2019-04-07T22:00:58.570Z,19.50
2019-04-07T22:03:49.053Z,19.50
2019-04-07T22:06:20.610Z,19.50
2019-04-07T22:08:52.118Z,19.50
2019-04-07T22:11:24.695Z,19.50
2019-04-07T22:13:53.676Z,19.50
2019-04-07T22:16:24.576Z,19.50
2019-04-07T22:18:55.219Z,19.50
2019-04-07T22:21:25.722Z,19.50
2019-04-07T22:23:56.194Z,19.50
2019-04-07T22:26:26.403Z,19.50
2019-04-07T22:28:56.919Z,19.50
2019-04-07T22:31:29.661Z,19.50
2019-04-07T22:34:01.008Z,19.50
2019-04-07T22:36:31.519Z,19.50
2019-04-07T22:39:02.508Z,19.50
2019-04-07T22:41:33.722Z,19.50
2019-04-07T22:44:03.916Z,19.50
2019-04-07T22:46:33.838Z,19.50
2019-04-07T22:49:03.741Z,19.50
2019-04-07T22:51:33.911Z,19.50
2019-04-07T22:54:03.964Z,19.50
2019-04-07T22:56:36.634Z,19.50
2019-04-07T22:59:05.798Z,19.50
2019-04-07T23:01:37.234Z,19.50
2019-04-07T23:04:07.076Z,19.50
2019-04-07T23:06:37.012Z,19.50
2019-04-07T23:09:07.948Z,19.50
2019-04-07T23:11:37.960Z,19.50
2019-04-07T23:14:09.484Z,19.50
2019-04-07T23:16:40.133Z,19.50
2019-04-07T23:19:10.929Z,19.50
2019-04-07T23:21:41.761Z,19.50
2019-04-07T23:24:11.840Z,19.50
2019-04-07T23:26:42.529Z,19.50
2019-04-07T23:29:12.593Z,19.50
2019-04-07T23:31:44.115Z,19.50
2019-04-07T23:34:14.783Z,19.50
2019-04-07T23:36:45.649Z,19.50
2019-04-07T23:39:15.661Z,19.50
2019-04-07T23:41:45.689Z,19.50
2019-04-07T23:44:16.058Z,19.50
2019-04-07T23:46:46.079Z,19.50
2019-04-07T23:49:15.988Z,19.50
2019-04-07T23:51:45.943Z,19.50
2019-04-07T23:54:16.403Z,19.50
2019-04-07T23:56:46.397Z,19.50
2019-04-07T23:59:16.770Z,19.50
